Terminal Aerodrome Forecast
Issued by NWS

Home | Current Version | Previous Version | Text Only | Print | Product List | Glossary On
Versions: 1 2 3 4 5 6 7 8 9 10 11 12 13 14
000
FTUS45 KFGZ 311731
TAFSEZ
TAF
KSEZ 311731Z 3118/0118 12010KT P6SM SCT100 SCT200
      TEMPO 3120/3124 VRB12G20KT 4SM TSRA BKN060CB
     FM010100 VRB06KT P6SM BKN090 BKN200=

USA.gov is the U.S. government's official web portal to all federal, state and local government web resources and services.